createdAt,value
2023-04-26T00:00:26.478Z,3.90
2023-04-26T00:02:55.943Z,3.80
2023-04-26T00:05:26.013Z,3.80
2023-04-26T00:07:55.714Z,3.80
2023-04-26T00:10:24.095Z,3.70
2023-04-26T00:12:52.549Z,3.70
2023-04-26T00:15:20.730Z,3.70
2023-04-26T00:17:49.598Z,3.70
2023-04-26T00:20:17.911Z,3.80
2023-04-26T00:22:46.754Z,3.70
2023-04-26T00:25:19.295Z,3.80
2023-04-26T00:27:47.461Z,3.80
2023-04-26T00:30:16.204Z,3.70
2023-04-26T00:32:44.441Z,3.70
2023-04-26T00:35:12.829Z,3.70
2023-04-26T00:37:41.662Z,3.70
2023-04-26T00:40:10.587Z,3.70
2023-04-26T00:42:41.151Z,3.80
2023-04-26T00:45:09.920Z,3.80
2023-04-26T00:47:38.154Z,3.70
2023-04-26T00:50:08.544Z,3.80
2023-04-26T00:52:36.914Z,3.80
2023-04-26T00:55:05.317Z,3.80
2023-04-26T00:57:33.540Z,3.70
2023-04-26T01:00:04.146Z,3.70
2023-04-26T01:02:32.393Z,3.70
2023-04-26T01:05:00.630Z,3.80
2023-04-26T01:07:28.901Z,3.70
2023-04-26T01:09:57.909Z,3.80
2023-04-26T01:12:26.950Z,3.80
2023-04-26T01:14:57.460Z,3.70
2023-04-26T01:17:29.890Z,3.70
2023-04-26T01:19:58.287Z,3.70
2023-04-26T01:22:26.666Z,3.70
2023-04-26T01:24:56.576Z,3.70
2023-04-26T01:27:24.747Z,3.70
2023-04-26T01:29:52.956Z,3.80
2023-04-26T01:32:21.042Z,3.80
2023-04-26T01:34:49.186Z,3.80
2023-04-26T01:37:17.440Z,3.80
2023-04-26T01:39:46.632Z,3.80
2023-04-26T01:42:16.173Z,3.80
2023-04-26T01:44:44.473Z,3.80
2023-04-26T01:47:12.591Z,3.70
2023-04-26T01:49:41.777Z,3.80
2023-04-26T01:52:09.844Z,3.80
2023-04-26T01:54:38.014Z,3.80
2023-04-26T01:57:06.255Z,3.70
2023-04-26T01:59:35.778Z,3.70
2023-04-26T02:02:04.074Z,3.70
2023-04-26T02:04:32.199Z,3.80
2023-04-26T02:07:00.304Z,3.80
2023-04-26T02:09:28.610Z,3.80
2023-04-26T02:11:59.652Z,3.80
2023-04-26T02:14:27.873Z,3.70
2023-04-26T02:16:57.697Z,3.80
2023-04-26T02:19:31.912Z,3.70
2023-04-26T02:22:00.073Z,3.80
2023-04-26T02:24:28.309Z,3.80
2023-04-26T02:27:00.544Z,3.80
2023-04-26T02:29:43.097Z,3.80
2023-04-26T02:32:14.658Z,3.80
2023-04-26T02:34:47.566Z,3.80
2023-04-26T02:37:15.732Z,3.80
2023-04-26T02:39:45.050Z,3.80
2023-04-26T02:42:13.215Z,3.80
2023-04-26T02:44:41.398Z,3.80
2023-04-26T02:47:09.619Z,3.90
2023-04-26T02:49:39.345Z,3.90
2023-04-26T02:52:07.725Z,3.80
2023-04-26T02:54:35.820Z,3.80
2023-04-26T02:57:04.001Z,3.80
2023-04-26T02:59:34.781Z,3.70
2023-04-26T03:02:03.131Z,3.80
2023-04-26T03:04:33.998Z,3.70
2023-04-26T03:07:03.569Z,3.70
2023-04-26T03:09:32.003Z,3.60
2023-04-26T03:12:03.474Z,3.70
2023-04-26T03:14:31.868Z,3.60
2023-04-26T03:17:00.136Z,3.60
2023-04-26T03:19:28.398Z,3.60
2023-04-26T03:21:56.675Z,3.60
2023-04-26T03:24:26.536Z,3.60
2023-04-26T03:26:54.676Z,3.60
2023-04-26T03:29:22.781Z,3.60
2023-04-26T03:31:51.138Z,3.60
2023-04-26T03:34:19.310Z,3.60
2023-04-26T03:36:49.888Z,3.60
2023-04-26T03:39:18.253Z,3.60
2023-04-26T03:41:47.841Z,3.60
2023-04-26T03:44:16.296Z,3.50
2023-04-26T03:46:44.616Z,3.60
2023-04-26T03:49:12.948Z,3.60
2023-04-26T03:51:41.585Z,3.50
2023-04-26T03:54:09.847Z,3.60
2023-04-26T03:56:40.014Z,3.60
2023-04-26T03:59:10.382Z,3.60
2023-04-26T04:01:38.650Z,3.60
2023-04-26T04:04:08.247Z,3.60
2023-04-26T04:06:36.681Z,3.70
2023-04-26T04:09:05.681Z,3.70
2023-04-26T04:11:34.775Z,3.70
2023-04-26T04:14:03.038Z,3.70
2023-04-26T04:16:32.834Z,3.80
2023-04-26T04:19:00.974Z,3.80
2023-04-26T04:21:29.161Z,3.80
2023-04-26T04:23:57.427Z,3.80
2023-04-26T04:26:28.752Z,3.80
2023-04-26T04:28:57.655Z,3.90
2023-04-26T04:31:26.060Z,3.90
2023-04-26T04:33:55.867Z,3.90
2023-04-26T04:36:24.075Z,3.90
2023-04-26T04:38:53.869Z,3.90
2023-04-26T04:41:23.738Z,4.00
2023-04-26T04:43:51.860Z,4.00
2023-04-26T04:46:23.229Z,4.00
2023-04-26T04:48:52.100Z,4.00
2023-04-26T04:51:21.962Z,4.00
2023-04-26T04:53:52.922Z,4.00
2023-04-26T04:56:21.965Z,3.70
2023-04-26T04:58:50.283Z,4.10
2023-04-26T05:01:18.676Z,4.20
2023-04-26T05:03:46.958Z,4.20
2023-04-26T05:06:15.228Z,4.20
2023-04-26T05:08:44.906Z,4.30
2023-04-26T05:11:13.064Z,4.30
2023-04-26T05:13:41.316Z,4.30
2023-04-26T05:16:09.479Z,4.40
2023-04-26T05:18:40.848Z,4.40
2023-04-26T05:21:08.958Z,4.40
2023-04-26T05:23:37.300Z,4.40
2023-04-26T05:26:07.321Z,4.30
2023-04-26T05:28:35.565Z,4.30
2023-04-26T05:31:04.323Z,4.30
2023-04-26T05:33:32.486Z,4.20
2023-04-26T05:36:03.468Z,4.20
2023-04-26T05:38:32.284Z,4.20
2023-04-26T05:41:00.601Z,4.30
2023-04-26T05:43:30.486Z,4.30
2023-04-26T05:45:58.894Z,4.30
2023-04-26T05:48:27.126Z,4.30
2023-04-26T05:50:55.599Z,4.30
2023-04-26T05:53:24.028Z,4.20
2023-04-26T05:55:52.116Z,4.20
2023-04-26T05:58:20.415Z,4.30
2023-04-26T06:00:50.143Z,4.30
2023-04-26T06:03:19.020Z,4.30
2023-04-26T06:05:47.534Z,4.30
2023-04-26T06:08:15.703Z,4.30
2023-04-26T06:10:43.882Z,4.20
2023-04-26T06:13:12.196Z,4.20
2023-04-26T06:15:40.379Z,4.10
2023-04-26T06:18:10.055Z,4.10
2023-04-26T06:20:38.454Z,4.20
2023-04-26T06:23:07.748Z,4.20
2023-04-26T06:25:37.229Z,4.10
2023-04-26T06:28:05.767Z,4.10
2023-04-26T06:30:33.875Z,4.10
2023-04-26T06:33:02.196Z,4.20
2023-04-26T06:35:32.008Z,4.20
2023-04-26T06:38:00.145Z,4.20
2023-04-26T06:40:28.301Z,4.20
2023-04-26T06:42:57.288Z,4.20
2023-04-26T06:45:25.616Z,4.20
2023-04-26T06:47:54.233Z,4.20
2023-04-26T06:50:22.697Z,4.10
2023-04-26T06:52:52.499Z,4.10
2023-04-26T06:55:20.782Z,4.10
2023-04-26T06:57:49.153Z,4.10
2023-04-26T07:00:17.993Z,4.00
2023-04-26T07:02:46.603Z,3.90
2023-04-26T07:05:15.544Z,4.10
2023-04-26T07:07:44.172Z,4.10
2023-04-26T07:10:14.780Z,4.20
2023-04-26T07:12:43.045Z,4.30
2023-04-26T07:15:11.807Z,4.30
2023-04-26T07:17:40.019Z,4.30
2023-04-26T07:20:09.121Z,4.40
2023-04-26T07:22:37.268Z,4.40
2023-04-26T07:25:05.765Z,4.40
2023-04-26T07:27:35.408Z,4.40
2023-04-26T07:30:03.787Z,4.50
2023-04-26T07:32:31.933Z,4.50
2023-04-26T07:35:00.299Z,4.50
2023-04-26T07:37:28.430Z,4.50
2023-04-26T07:39:56.827Z,4.40
2023-04-26T07:42:25.570Z,4.30
2023-04-26T07:44:55.133Z,4.30
2023-04-26T07:47:23.352Z,4.40
2023-04-26T07:49:54.203Z,4.50
2023-04-26T07:52:22.614Z,4.60
2023-04-26T07:54:50.780Z,4.70
2023-04-26T07:57:22.012Z,4.80
2023-04-26T07:59:50.299Z,4.80
2023-04-26T08:02:24.951Z,4.90
2023-04-26T08:05:00.855Z,5.10
2023-04-26T08:07:29.383Z,5.10
2023-04-26T08:09:57.524Z,5.10
2023-04-26T08:12:25.771Z,5.20
2023-04-26T08:14:54.365Z,5.30
2023-04-26T08:17:24.045Z,5.40
2023-04-26T08:19:52.192Z,5.60
2023-04-26T08:22:23.056Z,5.70
2023-04-26T08:24:51.470Z,5.80
2023-04-26T08:27:20.308Z,5.90
2023-04-26T08:29:48.635Z,5.80
2023-04-26T08:32:16.973Z,5.80
2023-04-26T08:34:46.749Z,5.90
2023-04-26T08:37:15.363Z,5.90
2023-04-26T08:39:43.648Z,5.90
2023-04-26T08:42:14.966Z,6.00
2023-04-26T08:44:43.592Z,6.00
2023-04-26T08:47:16.007Z,6.10
2023-04-26T08:49:45.634Z,6.40
2023-04-26T08:52:17.223Z,6.80
2023-04-26T08:54:46.510Z,7.20
2023-04-26T08:57:14.840Z,7.50
2023-04-26T08:59:44.334Z,7.60
2023-04-26T09:02:15.679Z,8.00
2023-04-26T09:04:44.063Z,8.30
2023-04-26T09:07:14.606Z,8.40
2023-04-26T09:09:44.877Z,8.40
2023-04-26T09:12:13.083Z,8.40
2023-04-26T09:14:41.701Z,8.50
2023-04-26T09:17:24.792Z,8.50
2023-04-26T09:19:53.129Z,8.60
2023-04-26T09:22:29.051Z,8.70
2023-04-26T09:24:58.764Z,8.70
2023-04-26T09:27:34.099Z,8.80
2023-04-26T09:30:06.005Z,8.80
2023-04-26T09:32:45.122Z,9.10
2023-04-26T09:35:20.168Z,9.40
2023-04-26T09:37:58.699Z,9.70
2023-04-26T09:40:31.318Z,9.90
2023-04-26T09:43:00.361Z,9.90
2023-04-26T09:45:29.082Z,9.80
2023-04-26T09:47:58.006Z,9.70
2023-04-26T09:50:32.822Z,9.60
2023-04-26T09:53:01.059Z,9.50
2023-04-26T09:55:35.554Z,9.20
2023-04-26T09:58:09.584Z,9.00
2023-04-26T10:00:39.598Z,9.10
2023-04-26T10:03:09.272Z,9.10
2023-04-26T10:05:38.031Z,8.80
2023-04-26T10:08:10.165Z,8.30
2023-04-26T10:10:39.916Z,8.10
2023-04-26T10:13:09.811Z,8.30
2023-04-26T10:15:38.266Z,8.40
2023-04-26T10:18:07.150Z,8.40
2023-04-26T10:20:36.910Z,8.70
2023-04-26T10:23:07.100Z,9.00
2023-04-26T10:25:39.942Z,9.40
2023-04-26T10:28:08.334Z,9.70
2023-04-26T10:30:55.483Z,9.90
2023-04-26T10:33:24.356Z,9.60
2023-04-26T10:36:06.379Z,9.80
2023-04-26T10:38:34.976Z,9.90
2023-04-26T10:41:21.868Z,10.00
2023-04-26T10:43:52.015Z,10.20
2023-04-26T10:46:36.938Z,10.60
2023-04-26T10:49:18.099Z,10.60
2023-04-26T10:52:01.042Z,10.50
2023-04-26T10:54:45.787Z,10.60
2023-04-26T10:57:14.470Z,10.60
2023-04-26T11:00:08.989Z,10.60
2023-04-26T11:02:46.451Z,10.50
2023-04-26T11:05:34.114Z,10.40
2023-04-26T11:08:06.178Z,10.10
2023-04-26T11:10:35.773Z,10.40
2023-04-26T11:13:05.250Z,10.70
2023-04-26T11:15:35.123Z,10.80
2023-04-26T11:18:03.839Z,10.90
2023-04-26T11:20:32.803Z,11.00
2023-04-26T11:23:01.310Z,11.10
2023-04-26T11:25:30.194Z,11.20
2023-04-26T11:27:58.918Z,11.00
2023-04-26T11:30:29.235Z,10.90
2023-04-26T11:32:59.058Z,11.20
2023-04-26T11:35:27.738Z,10.70
2023-04-26T11:37:55.919Z,10.50
2023-04-26T11:40:25.155Z,10.60
2023-04-26T11:42:53.457Z,10.40
2023-04-26T11:45:21.600Z,10.50
2023-04-26T11:47:50.129Z,10.90
2023-04-26T11:50:20.963Z,11.10
2023-04-26T11:52:49.123Z,11.00
2023-04-26T11:55:17.316Z,10.60
2023-04-26T11:57:45.563Z,10.60
2023-04-26T12:00:14.888Z,11.10
2023-04-26T12:02:46.696Z,11.20
2023-04-26T12:05:26.494Z,11.10
2023-04-26T12:07:56.957Z,11.40
2023-04-26T12:10:26.296Z,11.10
2023-04-26T12:12:55.387Z,10.90
2023-04-26T12:15:27.059Z,10.60
2023-04-26T12:17:55.719Z,10.70
2023-04-26T12:20:35.884Z,10.90
2023-04-26T12:23:06.470Z,10.50
2023-04-26T12:25:35.359Z,10.30
2023-04-26T12:28:04.696Z,10.30
2023-04-26T12:30:35.467Z,10.10
2023-04-26T12:33:15.522Z,10.30
2023-04-26T12:35:46.926Z,10.60
2023-04-26T12:38:15.949Z,10.90
2023-04-26T12:40:45.376Z,11.10
2023-04-26T12:43:13.683Z,10.60
2023-04-26T12:45:41.786Z,10.40
2023-04-26T12:48:10.076Z,9.80
2023-04-26T12:50:38.353Z,9.70
2023-04-26T12:53:07.986Z,9.80
2023-04-26T12:55:36.158Z,9.90
2023-04-26T12:58:04.574Z,10.10
2023-04-26T13:00:32.791Z,10.00
2023-04-26T13:03:01.101Z,10.60
2023-04-26T13:05:29.797Z,10.10
2023-04-26T13:07:58.084Z,10.50
2023-04-26T13:10:28.089Z,10.60
2023-04-26T13:12:57.953Z,10.50
2023-04-26T13:15:26.995Z,10.50
2023-04-26T13:17:55.416Z,10.60
2023-04-26T13:20:25.683Z,10.40
2023-04-26T13:22:54.850Z,10.70
2023-04-26T13:25:23.557Z,10.60
2023-04-26T13:27:54.875Z,10.60
2023-04-26T13:30:23.039Z,10.50
2023-04-26T13:32:51.545Z,10.30
2023-04-26T13:35:19.986Z,10.10
2023-04-26T13:37:48.183Z,9.70
2023-04-26T13:40:17.019Z,9.50
2023-04-26T13:42:45.183Z,10.00
2023-04-26T13:45:15.483Z,10.20
2023-04-26T13:47:45.020Z,10.80
2023-04-26T13:50:13.220Z,10.40
2023-04-26T13:52:41.360Z,10.70
2023-04-26T13:55:11.520Z,10.60
2023-04-26T13:57:39.847Z,10.80
2023-04-26T14:00:08.853Z,10.70
2023-04-26T14:02:41.443Z,11.00
2023-04-26T14:05:10.405Z,10.90
2023-04-26T14:07:38.696Z,10.90
2023-04-26T14:10:07.603Z,10.70
2023-04-26T14:12:35.834Z,10.40
2023-04-26T14:15:05.733Z,10.40
2023-04-26T14:17:34.038Z,10.50
2023-04-26T14:20:03.934Z,10.30
2023-04-26T14:22:32.182Z,10.00
2023-04-26T14:25:00.408Z,9.80
2023-04-26T14:27:28.823Z,9.80
2023-04-26T14:29:57.013Z,10.10
2023-04-26T14:32:25.374Z,11.30
2023-04-26T14:34:53.768Z,10.60
2023-04-26T14:37:24.128Z,10.70
2023-04-26T14:39:52.647Z,10.90
2023-04-26T14:42:20.778Z,11.10
2023-04-26T14:44:51.572Z,11.10
2023-04-26T14:47:19.662Z,11.30
2023-04-26T14:49:47.987Z,11.10
2023-04-26T14:52:16.406Z,11.00
2023-04-26T14:54:45.893Z,10.60
2023-04-26T14:57:14.223Z,10.80
2023-04-26T14:59:42.323Z,10.70
2023-04-26T15:02:11.767Z,10.80
2023-04-26T15:04:40.101Z,10.80
2023-04-26T15:07:13.059Z,10.90
2023-04-26T15:09:50.632Z,10.80
2023-04-26T15:12:18.914Z,10.70
2023-04-26T15:14:47.010Z,10.60
2023-04-26T15:17:15.266Z,10.40
2023-04-26T15:19:43.382Z,10.00
2023-04-26T15:22:12.053Z,9.90
2023-04-26T15:24:40.168Z,9.90
2023-04-26T15:27:10.534Z,9.90
2023-04-26T15:29:38.639Z,9.90
2023-04-26T15:32:07.097Z,10.00
2023-04-26T15:34:40.174Z,10.50
2023-04-26T15:37:10.750Z,10.50
2023-04-26T15:39:38.951Z,10.70
2023-04-26T15:42:07.196Z,10.70
2023-04-26T15:44:36.781Z,10.70
2023-04-26T15:47:05.234Z,10.80
2023-04-26T15:49:33.405Z,11.10
2023-04-26T15:52:01.565Z,11.30
2023-04-26T15:54:29.727Z,11.10
2023-04-26T15:56:58.383Z,11.10
2023-04-26T15:59:26.643Z,10.90
2023-04-26T16:01:59.007Z,11.80
2023-04-26T16:04:27.698Z,10.70
2023-04-26T16:06:56.179Z,10.70
2023-04-26T16:09:25.950Z,10.70
2023-04-26T16:11:54.365Z,10.70
2023-04-26T16:14:22.564Z,11.10
2023-04-26T16:16:50.706Z,10.90
2023-04-26T16:19:20.260Z,11.10
2023-04-26T16:21:51.499Z,11.00
2023-04-26T16:24:21.081Z,10.70
2023-04-26T16:26:49.344Z,10.70
2023-04-26T16:29:17.822Z,11.90
2023-04-26T16:31:46.143Z,10.50
2023-04-26T16:34:14.266Z,10.90
2023-04-26T16:36:43.901Z,11.00
2023-04-26T16:39:16.273Z,10.90
2023-04-26T16:41:44.468Z,10.90
2023-04-26T16:44:12.625Z,10.70
2023-04-26T16:46:41.212Z,10.90
2023-04-26T16:49:10.744Z,10.90
2023-04-26T16:51:38.943Z,11.20
2023-04-26T16:54:08.578Z,11.20
2023-04-26T16:56:36.938Z,11.00
2023-04-26T16:59:05.169Z,10.70
2023-04-26T17:01:33.497Z,10.50
2023-04-26T17:04:02.189Z,10.10
2023-04-26T17:06:30.598Z,10.10
2023-04-26T17:08:58.756Z,10.30
2023-04-26T17:11:28.299Z,10.20
2023-04-26T17:13:56.463Z,10.20
2023-04-26T17:16:24.627Z,9.90
2023-04-26T17:18:53.016Z,9.60
2023-04-26T17:21:21.177Z,9.70
2023-04-26T17:23:49.315Z,9.80
2023-04-26T17:26:17.403Z,9.60
2023-04-26T17:28:46.993Z,9.80
2023-04-26T17:31:15.503Z,10.00
2023-04-26T17:33:43.989Z,10.00
2023-04-26T17:36:12.158Z,9.60
2023-04-26T17:38:49.310Z,8.80
2023-04-26T17:41:18.145Z,9.60
2023-04-26T17:43:47.734Z,9.60
2023-04-26T17:46:16.096Z,9.50
2023-04-26T17:48:44.230Z,9.60
2023-04-26T17:51:14.123Z,9.20
2023-04-26T17:53:42.338Z,9.20
2023-04-26T17:56:10.700Z,9.10
2023-04-26T17:58:39.026Z,9.10
2023-04-26T18:01:08.800Z,8.90
2023-04-26T18:03:37.177Z,8.60
2023-04-26T18:06:05.864Z,8.60
2023-04-26T18:08:39.430Z,8.60
2023-04-26T18:11:07.705Z,8.50
2023-04-26T18:13:36.249Z,8.00
2023-04-26T18:16:04.542Z,7.80
2023-04-26T18:18:34.250Z,8.40
2023-04-26T18:21:02.421Z,8.10
2023-04-26T18:23:31.238Z,7.90
2023-04-26T18:25:59.418Z,7.90
2023-04-26T18:28:27.871Z,7.90
2023-04-26T18:30:57.506Z,7.90
2023-04-26T18:33:26.016Z,7.80
2023-04-26T18:35:55.878Z,7.60
2023-04-26T18:38:24.173Z,7.60
2023-04-26T18:40:55.081Z,7.70
2023-04-26T18:43:23.353Z,7.80
2023-04-26T18:45:52.250Z,7.40
2023-04-26T18:48:20.513Z,7.30
2023-04-26T18:50:52.354Z,7.30
2023-04-26T18:53:23.967Z,7.10
2023-04-26T18:55:52.648Z,7.00
2023-04-26T18:58:21.005Z,6.90
2023-04-26T19:00:50.228Z,6.80
2023-04-26T19:03:18.660Z,6.70
2023-04-26T19:05:47.065Z,6.60
2023-04-26T19:08:15.251Z,6.60
2023-04-26T19:10:47.876Z,6.60
2023-04-26T19:13:16.524Z,6.50
2023-04-26T19:15:44.722Z,6.30
2023-04-26T19:18:12.921Z,6.30
2023-04-26T19:20:41.526Z,6.30
2023-04-26T19:23:09.957Z,6.30
2023-04-26T19:25:38.100Z,6.20
2023-04-26T19:28:07.873Z,6.00
2023-04-26T19:30:36.496Z,5.90
2023-04-26T19:33:04.863Z,5.90
2023-04-26T19:35:33.020Z,6.00
2023-04-26T19:38:01.237Z,5.80
2023-04-26T19:40:29.582Z,5.90
2023-04-26T19:42:57.724Z,5.80
2023-04-26T19:45:30.203Z,5.80
2023-04-26T19:47:58.398Z,5.90
2023-04-26T19:50:26.544Z,5.80
2023-04-26T19:52:54.723Z,5.70
2023-04-26T19:55:23.269Z,5.60
2023-04-26T19:57:52.328Z,5.60
2023-04-26T20:00:25.114Z,5.50
2023-04-26T20:02:54.836Z,5.40
2023-04-26T20:05:23.122Z,5.50
2023-04-26T20:07:51.303Z,5.50
2023-04-26T20:10:20.368Z,5.40
2023-04-26T20:12:48.533Z,5.30
2023-04-26T20:15:16.910Z,5.20
2023-04-26T20:17:45.307Z,5.10
2023-04-26T20:20:15.164Z,5.10
2023-04-26T20:22:43.519Z,5.00
2023-04-26T20:25:12.601Z,5.00
2023-04-26T20:27:40.715Z,5.00
2023-04-26T20:30:09.628Z,5.00
2023-04-26T20:32:37.818Z,4.90
2023-04-26T20:35:06.881Z,4.90
2023-04-26T20:37:36.947Z,4.80
2023-04-26T20:40:05.893Z,4.80
2023-04-26T20:42:34.124Z,4.90
2023-04-26T20:45:04.548Z,4.80
2023-04-26T20:47:32.866Z,4.70
2023-04-26T20:50:01.025Z,4.60
2023-04-26T20:52:29.374Z,4.50
2023-04-26T20:54:59.106Z,4.60
2023-04-26T20:57:27.294Z,4.50
2023-04-26T20:59:56.638Z,4.40
2023-04-26T21:02:24.980Z,4.50
2023-04-26T21:04:53.620Z,4.50
2023-04-26T21:07:21.978Z,4.50
2023-04-26T21:09:51.637Z,4.40
2023-04-26T21:12:21.703Z,4.40
2023-04-26T21:14:54.224Z,4.30
2023-04-26T21:17:22.687Z,4.30
2023-04-26T21:19:51.217Z,4.30
2023-04-26T21:22:19.377Z,4.30
2023-04-26T21:24:51.749Z,4.20
2023-04-26T21:27:21.394Z,4.20
2023-04-26T21:29:49.691Z,4.20
2023-04-26T21:32:20.926Z,4.10
2023-04-26T21:34:49.023Z,4.20
2023-04-26T21:37:17.972Z,4.20
2023-04-26T21:39:46.234Z,4.10
2023-04-26T21:42:14.366Z,4.10
2023-04-26T21:44:46.825Z,4.00
2023-04-26T21:47:14.976Z,3.90
2023-04-26T21:49:43.158Z,3.80
2023-04-26T21:52:11.752Z,3.80
2023-04-26T21:54:40.219Z,3.80
2023-04-26T21:57:09.477Z,3.80
2023-04-26T21:59:42.056Z,3.80
2023-04-26T22:02:11.513Z,3.80
2023-04-26T22:04:39.822Z,3.80
2023-04-26T22:07:07.801Z,3.80
2023-04-26T22:09:36.130Z,3.60
2023-04-26T22:12:04.515Z,3.70
2023-04-26T22:14:32.670Z,3.70
2023-04-26T22:17:02.253Z,3.70
2023-04-26T22:19:31.966Z,3.70
2023-04-26T22:21:59.980Z,3.60
2023-04-26T22:24:28.265Z,3.60
2023-04-26T22:26:56.490Z,3.50
2023-04-26T22:29:27.008Z,3.50
2023-04-26T22:31:55.136Z,3.50
2023-04-26T22:34:23.164Z,3.50
2023-04-26T22:36:52.841Z,3.50
2023-04-26T22:39:20.873Z,3.50
2023-04-26T22:41:49.091Z,3.40
2023-04-26T22:44:17.326Z,3.40
2023-04-26T22:46:45.434Z,3.40
2023-04-26T22:49:13.728Z,3.30
2023-04-26T22:51:46.003Z,3.30
2023-04-26T22:54:20.560Z,3.30
2023-04-26T22:56:48.715Z,3.30
2023-04-26T22:59:16.779Z,3.20
2023-04-26T23:01:44.862Z,3.20
2023-04-26T23:04:13.019Z,3.10
2023-04-26T23:06:44.391Z,3.20
2023-04-26T23:09:13.130Z,3.20
2023-04-26T23:11:43.608Z,3.20
2023-04-26T23:14:11.886Z,3.10
2023-04-26T23:16:39.961Z,3.10
2023-04-26T23:19:08.381Z,3.00
2023-04-26T23:21:36.466Z,3.10
2023-04-26T23:24:04.766Z,2.90
2023-04-26T23:26:33.460Z,2.90
2023-04-26T23:29:03.364Z,3.00
2023-04-26T23:31:31.509Z,3.00
2023-04-26T23:33:59.869Z,2.90
2023-04-26T23:36:29.145Z,2.90
2023-04-26T23:38:57.283Z,2.90
2023-04-26T23:41:25.748Z,2.90
2023-04-26T23:43:53.869Z,2.90
2023-04-26T23:46:23.521Z,2.90
2023-04-26T23:48:51.887Z,2.80
2023-04-26T23:51:21.145Z,2.90
2023-04-26T23:53:51.664Z,2.70
2023-04-26T23:56:19.827Z,2.80
2023-04-26T23:58:48.095Z,2.80
